Time;durP1;ratioP1;P1;durP2;ratioP2;P2;SDS_P1;SDS_P2;PMS_P1;PMS_P2;Temp;Humidity;BMP_temperature;BMP_pressure;BME280_temperature;BME280_humidity;BME280_pressure;Samples;Min_cycle;Max_cycle;Signal;HPM_P1;HPM_P2
2023/10/27 00:01:06;;;;;;;;;;;12.80;99.90;;;;;;5097603;28;19912;-78
2023/10/27 00:03:31;;;;;;;;;;;12.80;99.90;;;;;;5096763;28;19909;-77
2023/10/27 00:05:57;;;;;;;;;;;12.80;99.90;;;;;;5096396;28;19908;-76
2023/10/27 00:08:22;;;;;;;;;;;12.80;99.90;;;;;;5097225;28;19995;-81
2023/10/27 00:10:48;;;;;;;;;;;12.80;99.90;;;;;;5083686;28;20384;-77
2023/10/27 00:13:13;;;;;;;;;;;12.80;99.90;;;;;;5088046;28;19908;-75
2023/10/27 00:15:39;;;;;;;;;;;12.70;99.90;;;;;;5082407;28;20352;-77
2023/10/27 00:18:04;;;;;;;;;;;12.80;99.90;;;;;;5086277;28;19966;-75
2023/10/27 00:20:30;;;;;;;;;;;12.70;99.90;;;;;;5083212;28;20670;-76
2023/10/27 00:22:55;;;;;;;;;;;12.70;99.90;;;;;;5087237;28;19919;-77
2023/10/27 00:25:21;;;;;;;;;;;12.70;99.90;;;;;;5083051;28;19912;-79
2023/10/27 00:27:47;;;;;;;;;;;12.60;99.90;;;;;;5087196;28;20017;-77
2023/10/27 00:30:12;;;;;;;;;;;12.50;99.90;;;;;;5083824;28;19909;-77
2023/10/27 00:32:38;;;;;;;;;;;12.50;99.90;;;;;;5088059;28;19919;-78
2023/10/27 00:35:07;;;;;;;;;;;12.50;99.90;;;;;;5072888;28;19917;-77
2023/10/27 00:37:33;;;;;;;;;;;12.60;99.90;;;;;;5069741;28;19921;-78
2023/10/27 00:39:59;;;;;;;;;;;12.70;99.90;;;;;;5060105;28;20328;-79
2023/10/27 00:42:25;;;;;;;;;;;12.70;99.90;;;;;;5087398;28;19908;-76
2023/10/27 00:44:50;;;;;;;;;;;12.70;99.90;;;;;;5080568;28;20027;-76
2023/10/27 00:47:16;;;;;;;;;;;12.80;99.90;;;;;;5085301;28;20005;-79
2023/10/27 00:49:42;;;;;;;;;;;12.80;99.90;;;;;;5081798;28;20011;-78
2023/10/27 00:52:08;;;;;;;;;;;12.90;99.90;;;;;;5085870;28;19954;-78
2023/10/27 00:54:35;;;;;;;;;;;12.90;99.90;;;;;;5081879;28;19987;-76
2023/10/27 00:57:00;;;;;;;;;;;12.90;99.90;;;;;;5085871;28;19908;-78
2023/10/27 00:59:26;;;;;;;;;;;12.90;99.90;;;;;;5082602;28;19915;-76
2023/10/27 01:01:51;;;;;;;;;;;12.90;99.90;;;;;;5085837;28;19908;-78
2023/10/27 01:04:17;;;;;;;;;;;12.90;99.90;;;;;;5081210;28;19913;-80
2023/10/27 01:06:42;;;;;;;;;;;12.90;99.90;;;;;;5085489;28;19965;-79
2023/10/27 01:09:08;;;;;;;;;;;12.90;99.90;;;;;;5083758;28;20450;-78
2023/10/27 01:11:34;;;;;;;;;;;13.00;99.90;;;;;;5085378;28;20070;-76
2023/10/27 01:13:59;;;;;;;;;;;13.10;99.90;;;;;;5081736;28;19916;-76
2023/10/27 01:16:25;;;;;;;;;;;13.10;99.90;;;;;;5082954;28;19915;-79
2023/10/27 01:18:51;;;;;;;;;;;13.20;99.90;;;;;;5081151;28;20003;-74
2023/10/27 01:21:16;;;;;;;;;;;13.20;99.90;;;;;;5084698;28;19915;-76
2023/10/27 01:23:42;;;;;;;;;;;13.20;99.90;;;;;;5081980;28;19908;-80
2023/10/27 01:26:07;;;;;;;;;;;13.30;99.90;;;;;;5084335;28;19920;-79
2023/10/27 01:28:33;;;;;;;;;;;13.20;99.90;;;;;;5081577;28;19936;-81
2023/10/27 01:30:58;;;;;;;;;;;13.30;99.90;;;;;;5085159;28;19923;-82
2023/10/27 01:33:24;;;;;;;;;;;13.20;99.90;;;;;;5082487;28;19909;-81
2023/10/27 01:35:50;;;;;;;;;;;13.20;99.90;;;;;;5087497;28;19908;-82
2023/10/27 01:38:16;;;;;;;;;;;13.10;99.90;;;;;;5082219;28;19982;-82
2023/10/27 01:40:41;;;;;;;;;;;13.00;99.90;;;;;;5082183;28;19909;-80
2023/10/27 01:43:07;;;;;;;;;;;13.00;99.90;;;;;;5082000;28;19924;-81
2023/10/27 01:45:33;;;;;;;;;;;12.90;99.90;;;;;;5085842;28;19923;-80
2023/10/27 01:47:58;;;;;;;;;;;12.80;99.90;;;;;;5080549;28;19912;-80
2023/10/27 01:50:24;;;;;;;;;;;12.80;99.90;;;;;;5084345;28;20502;-81
2023/10/27 01:52:49;;;;;;;;;;;12.70;99.90;;;;;;5081431;28;20453;-78
2023/10/27 01:55:15;;;;;;;;;;;12.60;99.90;;;;;;5084504;28;19912;-81
2023/10/27 01:57:40;;;;;;;;;;;12.60;99.90;;;;;;5081177;28;19966;-79
2023/10/27 02:00:07;;;;;;;;;;;12.70;99.90;;;;;;5083631;28;19915;-82
2023/10/27 02:02:34;;;;;;;;;;;12.70;99.90;;;;;;5070242;28;19951;-80
2023/10/27 02:05:01;;;;;;;;;;;12.70;99.90;;;;;;5083969;28;19912;-82
2023/10/27 02:07:27;;;;;;;;;;;12.80;99.90;;;;;;5083912;28;19949;-81
2023/10/27 02:09:52;;;;;;;;;;;12.80;99.90;;;;;;5086189;28;19908;-77
2023/10/27 02:12:18;;;;;;;;;;;12.70;99.90;;;;;;5066783;28;19908;-77
2023/10/27 02:14:43;;;;;;;;;;;12.60;99.90;;;;;;5082961;28;19923;-77
2023/10/27 02:17:11;;;;;;;;;;;12.30;99.90;;;;;;5074935;28;19913;-80
2023/10/27 02:19:36;;;;;;;;;;;12.20;99.90;;;;;;5088922;28;19956;-78
2023/10/27 02:22:02;;;;;;;;;;;12.10;99.90;;;;;;5083171;28;19955;-78
2023/10/27 02:24:28;;;;;;;;;;;12.00;99.90;;;;;;5084161;28;19912;-79
2023/10/27 02:26:54;;;;;;;;;;;12.00;99.90;;;;;;5077547;28;20007;-80
2023/10/27 02:29:20;;;;;;;;;;;12.00;99.90;;;;;;5081326;28;19916;-78
2023/10/27 02:31:45;;;;;;;;;;;11.90;99.90;;;;;;5078064;28;19970;-77
2023/10/27 02:34:11;;;;;;;;;;;11.90;99.90;;;;;;5083574;28;19908;-78
2023/10/27 02:36:37;;;;;;;;;;;11.90;99.90;;;;;;5084831;28;20388;-79
2023/10/27 02:39:02;;;;;;;;;;;11.90;99.90;;;;;;5090549;28;19912;-77
2023/10/27 02:41:28;;;;;;;;;;;11.90;99.90;;;;;;5086545;28;19909;-75
2023/10/27 02:43:53;;;;;;;;;;;11.90;99.90;;;;;;5085464;28;19937;-77
2023/10/27 02:46:19;;;;;;;;;;;11.90;99.90;;;;;;5089697;28;19909;-78
2023/10/27 02:48:44;;;;;;;;;;;11.90;99.90;;;;;;5093700;28;19916;-76
2023/10/27 02:51:11;;;;;;;;;;;11.80;99.90;;;;;;5091036;28;19938;-77
2023/10/27 02:53:36;;;;;;;;;;;11.80;99.90;;;;;;5094082;28;19912;-78
2023/10/27 02:56:08;;;;;;;;;;;11.80;99.90;;;;;;5084118;28;19914;-78
2023/10/27 02:58:34;;;;;;;;;;;11.70;99.90;;;;;;5081263;28;20383;-80
2023/10/27 03:00:59;;;;;;;;;;;11.60;99.90;;;;;;5083404;28;20269;-76
2023/10/27 03:03:27;;;;;;;;;;;11.60;99.90;;;;;;5076077;28;20046;-77
2023/10/27 03:05:52;;;;;;;;;;;11.60;99.90;;;;;;5085253;28;19916;-77
2023/10/27 03:08:18;;;;;;;;;;;11.60;99.90;;;;;;5091240;28;19908;-79
2023/10/27 03:10:44;;;;;;;;;;;11.50;99.90;;;;;;5084028;28;19977;-81
2023/10/27 03:13:09;;;;;;;;;;;11.30;99.90;;;;;;5076209;28;19908;-80
2023/10/27 03:15:38;;;;;;;;;;;11.20;99.90;;;;;;5095160;28;19909;-80
2023/10/27 03:18:03;;;;;;;;;;;11.00;99.90;;;;;;5095369;28;19979;-78
2023/10/27 03:20:29;;;;;;;;;;;10.90;99.90;;;;;;5082295;28;20336;-80
2023/10/27 03:22:54;;;;;;;;;;;10.80;99.90;;;;;;5096018;28;19915;-78
2023/10/27 03:25:20;;;;;;;;;;;10.70;99.90;;;;;;5094998;28;20002;-78
2023/10/27 03:27:45;;;;;;;;;;;10.60;99.90;;;;;;5095710;28;19947;-78
2023/10/27 03:30:11;;;;;;;;;;;10.60;99.90;;;;;;5075539;28;20444;-80
2023/10/27 03:32:37;;;;;;;;;;;10.60;99.90;;;;;;5088218;28;20976;-79
2023/10/27 03:35:02;;;;;;;;;;;10.50;99.90;;;;;;5092503;28;19924;-81
2023/10/27 03:37:28;;;;;;;;;;;10.50;99.90;;;;;;5093161;28;19924;-79
2023/10/27 03:39:53;;;;;;;;;;;10.40;99.90;;;;;;5094276;28;19953;-80
2023/10/27 03:42:19;;;;;;;;;;;10.30;99.90;;;;;;5095361;28;19998;-80
2023/10/27 03:44:44;;;;;;;;;;;10.30;99.90;;;;;;5093835;28;19915;-79
2023/10/27 03:47:10;;;;;;;;;;;10.30;99.90;;;;;;5094166;28;19951;-78
2023/10/27 03:49:36;;;;;;;;;;;10.20;99.90;;;;;;5090798;28;20001;-80
2023/10/27 03:52:01;;;;;;;;;;;10.20;99.90;;;;;;5093124;28;19953;-80
2023/10/27 03:54:28;;;;;;;;;;;10.20;99.90;;;;;;5090643;28;19962;-79
2023/10/27 03:56:53;;;;;;;;;;;10.10;99.90;;;;;;5092744;28;19948;-80
2023/10/27 03:59:19;;;;;;;;;;;10.10;99.90;;;;;;5092173;28;19923;-81
2023/10/27 04:01:45;;;;;;;;;;;10.10;99.90;;;;;;5092710;28;19961;-78
2023/10/27 04:04:11;;;;;;;;;;;10.10;99.90;;;;;;5092363;28;19931;-79
2023/10/27 04:06:37;;;;;;;;;;;10.10;99.90;;;;;;5092699;28;19908;-80
2023/10/27 04:09:03;;;;;;;;;;;10.10;99.90;;;;;;5090954;28;20029;-80
2023/10/27 04:11:29;;;;;;;;;;;10.10;99.90;;;;;;5092411;28;19934;-80
2023/10/27 04:13:55;;;;;;;;;;;10.10;99.90;;;;;;5092314;28;19909;-81
2023/10/27 04:16:20;;;;;;;;;;;10.20;99.90;;;;;;5093914;28;19908;-80
2023/10/27 04:18:45;;;;;;;;;;;10.20;99.90;;;;;;5090749;28;20028;-81
2023/10/27 04:21:11;;;;;;;;;;;10.30;99.90;;;;;;5093991;28;19995;-80
2023/10/27 04:23:37;;;;;;;;;;;10.30;99.90;;;;;;5092020;28;19937;-79
2023/10/27 04:26:03;;;;;;;;;;;10.30;99.90;;;;;;5093867;28;20296;-79
2023/10/27 04:28:28;;;;;;;;;;;10.30;99.90;;;;;;5091541;28;19931;-79
2023/10/27 04:30:54;;;;;;;;;;;10.30;99.90;;;;;;5094072;28;19908;-79
2023/10/27 04:33:20;;;;;;;;;;;10.20;99.90;;;;;;5091125;28;19908;-79
2023/10/27 04:35:46;;;;;;;;;;;10.20;99.90;;;;;;5093743;28;19994;-79
2023/10/27 04:38:11;;;;;;;;;;;10.20;99.90;;;;;;5092508;28;19912;-81
2023/10/27 04:40:37;;;;;;;;;;;10.10;99.90;;;;;;5095939;28;19943;-80
2023/10/27 04:43:03;;;;;;;;;;;10.20;99.90;;;;;;5095376;28;19962;-80
2023/10/27 04:45:29;;;;;;;;;;;10.30;99.90;;;;;;5097340;28;19916;-80
2023/10/27 04:47:54;;;;;;;;;;;10.50;99.90;;;;;;5095341;28;19934;-79
2023/10/27 04:50:20;;;;;;;;;;;10.50;99.90;;;;;;5097021;28;19930;-76
2023/10/27 04:52:46;;;;;;;;;;;10.60;99.90;;;;;;5094964;28;20287;-78
2023/10/27 04:55:11;;;;;;;;;;;10.70;99.90;;;;;;5097162;28;19908;-77
2023/10/27 04:57:37;;;;;;;;;;;10.70;99.90;;;;;;5095399;28;20502;-77
2023/10/27 05:00:08;;;;;;;;;;;10.70;99.90;;;;;;5097009;28;19960;-75
2023/10/27 05:02:33;;;;;;;;;;;10.70;99.90;;;;;;5095539;28;19919;-77
2023/10/27 05:04:59;;;;;;;;;;;10.80;99.90;;;;;;5096914;28;19912;-78
2023/10/27 05:07:25;;;;;;;;;;;10.80;99.90;;;;;;5089134;28;19913;-77
2023/10/27 05:09:51;;;;;;;;;;;10.70;99.90;;;;;;5088525;28;19923;-77
2023/10/27 05:12:17;;;;;;;;;;;10.60;99.90;;;;;;5080452;28;19909;-78
2023/10/27 05:14:42;;;;;;;;;;;10.50;99.90;;;;;;5085168;28;19915;-79
2023/10/27 05:17:08;;;;;;;;;;;10.40;99.90;;;;;;5086161;28;19908;-80
2023/10/27 05:19:34;;;;;;;;;;;10.30;99.90;;;;;;5089108;28;19938;-80
2023/10/27 05:22:03;;;;;;;;;;;10.30;99.90;;;;;;5085466;28;19939;-78
2023/10/27 05:24:28;;;;;;;;;;;10.20;99.90;;;;;;5085728;28;19955;-78
2023/10/27 05:26:54;;;;;;;;;;;10.10;99.90;;;;;;5081836;28;19919;-77
2023/10/27 05:29:21;;;;;;;;;;;10.00;99.90;;;;;;5083280;28;20200;-78
2023/10/27 05:31:47;;;;;;;;;;;9.90;99.90;;;;;;5081186;28;20446;-78
2023/10/27 05:34:12;;;;;;;;;;;9.90;99.90;;;;;;5083690;28;19980;-76
2023/10/27 05:36:38;;;;;;;;;;;9.80;99.90;;;;;;5085325;28;19914;-77
2023/10/27 05:39:03;;;;;;;;;;;9.80;99.90;;;;;;5093924;28;19922;-76
2023/10/27 05:41:29;;;;;;;;;;;9.80;99.90;;;;;;5088220;28;19918;-76
2023/10/27 05:43:54;;;;;;;;;;;9.70;99.90;;;;;;5087769;28;20429;-76
2023/10/27 05:46:20;;;;;;;;;;;9.70;99.90;;;;;;5088610;28;19909;-76
2023/10/27 05:48:46;;;;;;;;;;;9.60;99.90;;;;;;5085403;28;20820;-76
2023/10/27 05:51:12;;;;;;;;;;;9.70;99.90;;;;;;5091922;28;19936;-77
2023/10/27 05:53:37;;;;;;;;;;;9.70;99.90;;;;;;5093181;28;19935;-76
2023/10/27 05:56:03;;;;;;;;;;;9.60;99.90;;;;;;5085544;28;19912;-77
2023/10/27 05:58:32;;;;;;;;;;;9.60;99.90;;;;;;5069480;28;19916;-77
2023/10/27 06:00:58;;;;;;;;;;;9.60;99.90;;;;;;5085496;28;20364;-77
2023/10/27 06:03:24;;;;;;;;;;;9.60;99.90;;;;;;5078433;28;19916;-76
2023/10/27 06:05:51;;;;;;;;;;;9.60;99.90;;;;;;5083853;28;19966;-76
2023/10/27 06:08:17;;;;;;;;;;;9.60;99.90;;;;;;5087413;28;20435;-80
2023/10/27 06:10:42;;;;;;;;;;;9.60;99.90;;;;;;5081920;28;20360;-80
2023/10/27 06:13:08;;;;;;;;;;;9.70;99.90;;;;;;5075924;28;19913;-77
2023/10/27 06:15:33;;;;;;;;;;;9.60;99.90;;;;;;5076145;28;19912;-78
2023/10/27 06:17:59;;;;;;;;;;;9.60;99.90;;;;;;5075537;28;19979;-78
2023/10/27 06:20:24;;;;;;;;;;;9.60;99.90;;;;;;5077697;28;19968;-77
2023/10/27 06:22:50;;;;;;;;;;;9.50;99.90;;;;;;5077571;28;19983;-79
2023/10/27 06:25:15;;;;;;;;;;;9.50;99.90;;;;;;5078541;28;19916;-78
2023/10/27 06:27:41;;;;;;;;;;;9.50;99.90;;;;;;5076279;28;20012;-79
2023/10/27 06:30:07;;;;;;;;;;;9.50;99.90;;;;;;5077504;28;20039;-80
2023/10/27 06:32:32;;;;;;;;;;;9.50;99.90;;;;;;5089571;28;20368;-79
2023/10/27 06:34:58;;;;;;;;;;;9.40;99.90;;;;;;5082987;28;19908;-78
2023/10/27 06:37:23;;;;;;;;;;;9.40;99.90;;;;;;5096486;28;19927;-80
2023/10/27 06:39:50;;;;;;;;;;;9.40;99.90;;;;;;5071150;28;19920;-78
2023/10/27 06:42:16;;;;;;;;;;;9.40;99.90;;;;;;5070388;28;19954;-79
2023/10/27 06:44:41;;;;;;;;;;;9.40;99.90;;;;;;5081787;28;19919;-78
2023/10/27 06:47:07;;;;;;;;;;;9.40;99.90;;;;;;5096400;28;19908;-78
2023/10/27 06:49:32;;;;;;;;;;;9.40;99.90;;;;;;5094452;28;20394;-79
2023/10/27 06:51:58;;;;;;;;;;;9.40;99.90;;;;;;5094667;28;19970;-78
2023/10/27 06:54:24;;;;;;;;;;;9.40;99.90;;;;;;5092941;28;19973;-77
2023/10/27 06:56:50;;;;;;;;;;;9.50;99.90;;;;;;5091575;28;19965;-78
2023/10/27 06:59:16;;;;;;;;;;;9.60;99.90;;;;;;5084831;28;19916;-79
2023/10/27 07:01:44;;;;;;;;;;;9.60;99.90;;;;;;5083119;28;20437;-77
2023/10/27 07:04:09;;;;;;;;;;;9.70;99.90;;;;;;5087401;28;19915;-80
2023/10/27 07:06:35;;;;;;;;;;;9.80;99.90;;;;;;5091769;28;19909;-80
2023/10/27 07:09:00;;;;;;;;;;;9.90;99.90;;;;;;5086774;28;20261;-80
2023/10/27 07:11:26;;;;;;;;;;;10.00;99.90;;;;;;5091092;28;19908;-80
2023/10/27 07:13:51;;;;;;;;;;;10.00;99.90;;;;;;5080309;28;20007;-79
2023/10/27 07:16:17;;;;;;;;;;;10.10;99.90;;;;;;5084887;28;19995;-79
2023/10/27 07:18:42;;;;;;;;;;;10.10;99.90;;;;;;5081599;28;19913;-81
2023/10/27 07:21:11;;;;;;;;;;;10.20;99.90;;;;;;5086067;28;19914;-80
2023/10/27 07:23:37;;;;;;;;;;;10.30;99.90;;;;;;5068332;28;19920;-81
2023/10/27 07:26:12;;;;;;;;;;;10.40;99.90;;;;;;5084825;28;19951;-81
2023/10/27 07:28:39;;;;;;;;;;;10.50;99.90;;;;;;5079716;28;19925;-81
2023/10/27 07:31:04;;;;;;;;;;;10.60;99.90;;;;;;5079991;28;19942;-81
2023/10/27 07:33:30;;;;;;;;;;;10.70;99.90;;;;;;5085612;28;19909;-81
2023/10/27 07:35:55;;;;;;;;;;;10.80;99.90;;;;;;5078343;28;19917;-81
2023/10/27 07:38:22;;;;;;;;;;;10.80;99.90;;;;;;5075220;28;19913;-80
2023/10/27 07:40:47;;;;;;;;;;;10.90;99.90;;;;;;5078954;28;19951;-80
2023/10/27 07:43:13;;;;;;;;;;;11.00;99.90;;;;;;5092516;28;19912;-81
2023/10/27 07:45:38;;;;;;;;;;;11.10;99.90;;;;;;5092698;28;19908;-80
2023/10/27 07:48:05;;;;;;;;;;;11.20;99.90;;;;;;5090648;28;19912;-80
2023/10/27 07:50:32;;;;;;;;;;;11.40;99.90;;;;;;5091719;28;19908;-80
2023/10/27 07:52:57;;;;;;;;;;;11.50;99.90;;;;;;5091183;28;19908;-80
2023/10/27 07:55:23;;;;;;;;;;;11.60;99.90;;;;;;5090715;28;19923;-80
2023/10/27 07:57:48;;;;;;;;;;;11.60;99.90;;;;;;5082537;28;19912;-80
2023/10/27 08:00:14;;;;;;;;;;;11.70;99.90;;;;;;5069372;28;20359;-81
2023/10/27 08:02:40;;;;;;;;;;;11.70;99.90;;;;;;5079840;28;19908;-81
2023/10/27 08:05:06;;;;;;;;;;;11.70;99.90;;;;;;5089866;28;19908;-80
2023/10/27 08:07:31;;;;;;;;;;;11.80;99.90;;;;;;5085144;28;19908;-80
2023/10/27 08:09:57;;;;;;;;;;;11.90;99.90;;;;;;5089509;28;19908;-80
2023/10/27 08:12:22;;;;;;;;;;;11.90;99.90;;;;;;5083276;28;19983;-81
2023/10/27 08:14:48;;;;;;;;;;;12.00;99.90;;;;;;5087948;28;20004;-80
2023/10/27 08:17:13;;;;;;;;;;;12.00;99.90;;;;;;5083908;28;19916;-81
2023/10/27 08:19:39;;;;;;;;;;;12.10;99.90;;;;;;5081777;28;19916;-80
2023/10/27 08:22:05;;;;;;;;;;;12.20;99.90;;;;;;5074067;28;19913;-81
2023/10/27 08:24:31;;;;;;;;;;;12.30;99.90;;;;;;5077405;28;19916;-80
2023/10/27 08:26:57;;;;;;;;;;;12.30;99.90;;;;;;5097269;28;19962;-81
2023/10/27 08:29:22;;;;;;;;;;;12.40;99.90;;;;;;5098197;28;20007;-80
2023/10/27 08:31:48;;;;;;;;;;;12.40;99.90;;;;;;5088202;28;19916;-80
2023/10/27 08:34:13;;;;;;;;;;;12.50;99.90;;;;;;5098743;28;19986;-80
2023/10/27 08:36:39;;;;;;;;;;;12.50;99.90;;;;;;5098574;28;19912;-81
2023/10/27 08:39:06;;;;;;;;;;;12.40;99.90;;;;;;5084544;28;20054;-79
2023/10/27 08:41:32;;;;;;;;;;;12.50;99.90;;;;;;5097525;28;19917;-79
2023/10/27 08:43:58;;;;;;;;;;;12.50;99.90;;;;;;5093902;28;19934;-81
2023/10/27 08:46:24;;;;;;;;;;;12.60;99.90;;;;;;5091560;28;19969;-78
2023/10/27 08:48:50;;;;;;;;;;;12.80;99.90;;;;;;5093853;28;19919;-82
2023/10/27 08:51:16;;;;;;;;;;;12.90;99.90;;;;;;5091135;28;19908;-81
2023/10/27 08:53:43;;;;;;;;;;;13.00;99.90;;;;;;5096121;28;19934;-81
2023/10/27 08:56:12;;;;;;;;;;;13.10;99.90;;;;;;5088500;28;19915;-81
2023/10/27 08:58:47;;;;;;;;;;;13.10;99.90;;;;;;5089235;28;19983;-81
2023/10/27 09:01:13;;;;;;;;;;;13.10;99.90;;;;;;5098470;28;19919;-82
2023/10/27 09:03:39;;;;;;;;;;;13.20;99.90;;;;;;5088738;28;20002;-82
2023/10/27 09:06:05;;;;;;;;;;;13.30;99.90;;;;;;5082358;28;19947;-81
2023/10/27 09:08:30;;;;;;;;;;;13.40;99.90;;;;;;5070292;28;19908;-81
2023/10/27 09:10:56;;;;;;;;;;;13.30;99.90;;;;;;5083279;28;19973;-82
2023/10/27 09:13:21;;;;;;;;;;;13.40;99.90;;;;;;5083015;28;19908;-81
2023/10/27 09:15:48;;;;;;;;;;;13.30;99.90;;;;;;5078127;28;19916;-79
2023/10/27 09:18:14;;;;;;;;;;;13.30;99.90;;;;;;5081052;28;19915;-80
2023/10/27 09:20:46;;;;;;;;;;;13.40;99.90;;;;;;5080065;28;20558;-80
2023/10/27 09:23:12;;;;;;;;;;;13.40;99.90;;;;;;5079835;28;19912;-79
2023/10/27 09:25:38;;;;;;;;;;;13.30;99.90;;;;;;5068805;28;20007;-81
2023/10/27 09:28:07;;;;;;;;;;;13.40;99.90;;;;;;5078115;28;19932;-80
2023/10/27 09:30:32;;;;;;;;;;;13.50;99.90;;;;;;5089440;28;19913;-80
2023/10/27 09:33:13;;;;;;;;;;;13.60;99.90;;;;;;5087439;28;19958;-79
2023/10/27 09:35:43;;;;;;;;;;;13.70;99.90;;;;;;5091750;28;19908;-79
2023/10/27 09:38:08;;;;;;;;;;;13.90;99.90;;;;;;5077904;28;19967;-79
2023/10/27 09:40:35;;;;;;;;;;;14.10;99.90;;;;;;5069773;28;19916;-78
2023/10/27 09:43:02;;;;;;;;;;;14.30;99.90;;;;;;5086336;28;19913;-77
2023/10/27 09:45:29;;;;;;;;;;;14.60;99.90;;;;;;5092242;28;19967;-78
2023/10/27 09:48:02;;;;;;;;;;;14.70;99.90;;;;;;5086517;28;19908;-76
2023/10/27 09:50:28;;;;;;;;;;;14.90;99.90;;;;;;5092390;28;19915;-77
2023/10/27 09:52:56;;;;;;;;;;;15.00;99.90;;;;;;5087815;28;19912;-77
2023/10/27 09:55:22;;;;;;;;;;;15.20;99.90;;;;;;5082789;28;19913;-77
2023/10/27 09:57:48;;;;;;;;;;;15.30;99.90;;;;;;5084439;28;20376;-77
2023/10/27 10:00:18;;;;;;;;;;;15.50;99.90;;;;;;5092226;28;19992;-75
2023/10/27 10:02:44;;;;;;;;;;;15.70;99.90;;;;;;5089295;28;19935;-77
2023/10/27 10:05:11;;;;;;;;;;;15.90;99.90;;;;;;5089569;28;20333;-77
2023/10/27 10:07:52;;;;;;;;;;;16.00;99.90;;;;;;5084622;28;19916;-76
2023/10/27 10:10:32;;;;;;;;;;;16.10;99.90;;;;;;5086552;28;19912;-76
2023/10/27 10:13:00;;;;;;;;;;;16.30;99.90;;;;;;5088766;28;19915;-76
2023/10/27 10:15:36;;;;;;;;;;;16.40;99.90;;;;;;5083771;28;19913;-75
2023/10/27 10:18:03;;;;;;;;;;;16.50;99.90;;;;;;5068846;28;19943;-75
2023/10/27 10:20:41;;;;;;;;;;;16.70;99.90;;;;;;5083523;28;19909;-75
2023/10/27 10:23:10;;;;;;;;;;;16.90;99.90;;;;;;5086948;28;19912;-75
2023/10/27 10:25:36;;;;;;;;;;;17.10;99.90;;;;;;5085139;28;19916;-77
2023/10/27 10:28:07;;;;;;;;;;;17.10;99.90;;;;;;5086414;28;19920;-77
2023/10/27 10:30:33;;;;;;;;;;;17.20;99.90;;;;;;5085090;28;20038;-78
2023/10/27 10:33:19;;;;;;;;;;;17.20;99.90;;;;;;5086043;28;19948;-79
2023/10/27 10:35:49;;;;;;;;;;;17.40;99.90;;;;;;5087680;28;19916;-78
2023/10/27 10:38:26;;;;;;;;;;;17.50;99.90;;;;;;5083313;28;19968;-80
2023/10/27 10:40:56;;;;;;;;;;;17.60;99.90;;;;;;5070189;28;19947;-80
2023/10/27 10:43:27;;;;;;;;;;;17.70;99.90;;;;;;5076174;28;19909;-79
2023/10/27 10:45:53;;;;;;;;;;;17.80;99.90;;;;;;5080367;28;19957;-80
2023/10/27 10:48:20;;;;;;;;;;;17.90;99.90;;;;;;5084353;28;20026;-79
2023/10/27 10:50:46;;;;;;;;;;;18.00;99.90;;;;;;5086043;28;20372;-80
2023/10/27 10:53:24;;;;;;;;;;;18.10;99.90;;;;;;5085812;28;19912;-79
2023/10/27 10:55:50;;;;;;;;;;;18.20;99.90;;;;;;5085443;28;20035;-80
2023/10/27 10:58:23;;;;;;;;;;;18.10;99.90;;;;;;5079968;28;20011;-79
2023/10/27 11:00:49;;;;;;;;;;;18.10;99.90;;;;;;5079592;28;19913;-80
2023/10/27 11:03:15;;;;;;;;;;;18.30;99.90;;;;;;5081454;28;19908;-78
2023/10/27 11:05:41;;;;;;;;;;;18.40;99.90;;;;;;5081300;28;19919;-77
2023/10/27 11:08:07;;;;;;;;;;;18.30;99.90;;;;;;5081765;28;19943;-80
2023/10/27 11:10:33;;;;;;;;;;;18.40;99.90;;;;;;5081264;28;19915;-82
2023/10/27 11:13:03;;;;;;;;;;;18.60;99.90;;;;;;5087740;28;19919;-79
2023/10/27 11:15:42;;;;;;;;;;;18.70;99.90;;;;;;5087243;28;19912;-80
2023/10/27 11:18:10;;;;;;;;;;;18.90;99.90;;;;;;5080874;28;19940;-77
2023/10/27 11:20:36;;;;;;;;;;;19.00;99.90;;;;;;5087543;28;19908;-77
2023/10/27 11:23:08;;;;;;;;;;;19.10;99.90;;;;;;5091451;28;19934;-79
2023/10/27 11:25:33;;;;;;;;;;;19.00;99.90;;;;;;5091562;28;19976;-79
2023/10/27 11:28:18;;;;;;;;;;;19.00;99.90;;;;;;5090326;28;20387;-77
2023/10/27 11:30:43;;;;;;;;;;;18.90;99.90;;;;;;5069275;28;19908;-77
2023/10/27 11:33:09;;;;;;;;;;;18.90;99.90;;;;;;5084856;28;19916;-78
2023/10/27 11:35:44;;;;;;;;;;;18.80;99.90;;;;;;5095774;28;20344;-76
2023/10/27 11:38:10;;;;;;;;;;;18.70;99.90;;;;;;5086165;28;19916;-77
2023/10/27 11:40:35;;;;;;;;;;;18.60;99.90;;;;;;5082025;28;19992;-77
2023/10/27 11:43:01;;;;;;;;;;;18.60;99.90;;;;;;5075878;28;20340;-78
2023/10/27 11:45:26;;;;;;;;;;;18.40;99.90;;;;;;5075814;28;19913;-77
2023/10/27 11:47:52;;;;;;;;;;;18.40;99.90;;;;;;5076100;28;20331;-78
2023/10/27 11:50:17;;;;;;;;;;;18.40;99.90;;;;;;5096223;28;19912;-78
2023/10/27 11:52:43;;;;;;;;;;;18.60;99.90;;;;;;5090857;28;19920;-78
2023/10/27 11:55:08;;;;;;;;;;;18.80;99.90;;;;;;5095483;28;19915;-78
2023/10/27 11:57:34;;;;;;;;;;;18.90;99.90;;;;;;5090486;28;19912;-78
2023/10/27 11:59:59;;;;;;;;;;;18.90;99.90;;;;;;5085998;28;19913;-77
2023/10/27 12:02:25;;;;;;;;;;;18.90;99.90;;;;;;5082103;28;19909;-77
2023/10/27 12:04:51;;;;;;;;;;;18.90;99.90;;;;;;5088579;28;20346;-77
2023/10/27 12:07:17;;;;;;;;;;;18.80;99.90;;;;;;5081867;28;19912;-77
2023/10/27 12:09:43;;;;;;;;;;;18.70;99.90;;;;;;5085129;28;19912;-77
2023/10/27 12:12:09;;;;;;;;;;;18.70;99.90;;;;;;5084738;28;19930;-77
2023/10/27 12:14:35;;;;;;;;;;;18.20;99.90;;;;;;5089208;28;20501;-75
2023/10/27 12:17:00;;;;;;;;;;;18.00;99.90;;;;;;5075431;28;19919;-77
2023/10/27 12:19:27;;;;;;;;;;;17.70;99.90;;;;;;5083467;28;19917;-77
2023/10/27 12:21:53;;;;;;;;;;;17.50;99.90;;;;;;5081367;28;20455;-76
2023/10/27 12:24:18;;;;;;;;;;;17.20;99.90;;;;;;5081524;28;19963;-75
2023/10/27 12:26:47;;;;;;;;;;;16.90;99.90;;;;;;5082302;28;19916;-79
2023/10/27 12:29:12;;;;;;;;;;;16.70;99.90;;;;;;5081671;28;20292;-76
2023/10/27 12:31:38;;;;;;;;;;;16.50;99.90;;;;;;5080038;28;20000;-76
2023/10/27 12:34:04;;;;;;;;;;;16.40;99.90;;;;;;5081565;28;19917;-76
2023/10/27 12:36:29;;;;;;;;;;;16.30;99.90;;;;;;5088191;28;19944;-77
2023/10/27 12:38:55;;;;;;;;;;;16.30;99.90;;;;;;5093802;28;19923;-76
2023/10/27 12:41:21;;;;;;;;;;;16.40;99.90;;;;;;5089249;28;19919;-76
2023/10/27 12:43:46;;;;;;;;;;;16.50;99.90;;;;;;5092809;28;19908;-76
2023/10/27 12:46:12;;;;;;;;;;;16.70;99.90;;;;;;5093168;28;19908;-76
2023/10/27 12:48:38;;;;;;;;;;;16.80;99.90;;;;;;5095947;28;19964;-76
2023/10/27 12:51:04;;;;;;;;;;;16.90;99.90;;;;;;5086899;28;19965;-76
2023/10/27 12:53:29;;;;;;;;;;;17.10;99.90;;;;;;5095304;28;19912;-76
2023/10/27 12:55:55;;;;;;;;;;;17.20;99.90;;;;;;5094329;28;19950;-76
2023/10/27 12:58:21;;;;;;;;;;;17.50;99.90;;;;;;5095839;28;19923;-77
2023/10/27 13:00:48;;;;;;;;;;;17.50;99.90;;;;;;5092237;28;19908;-77
2023/10/27 13:03:16;;;;;;;;;;;17.70;99.90;;;;;;5091684;28;19999;-77
2023/10/27 13:05:42;;;;;;;;;;;17.80;99.90;;;;;;5087145;28;19920;-77
2023/10/27 13:08:07;;;;;;;;;;;18.00;99.90;;;;;;5092474;28;19908;-76
2023/10/27 13:10:33;;;;;;;;;;;18.10;99.90;;;;;;5085581;28;19909;-77
2023/10/27 13:13:00;;;;;;;;;;;18.10;99.90;;;;;;5092501;28;19915;-75
2023/10/27 13:15:26;;;;;;;;;;;18.10;99.90;;;;;;5084659;28;20733;-75
2023/10/27 13:17:51;;;;;;;;;;;18.10;99.90;;;;;;5091671;28;19916;-76
2023/10/27 13:20:18;;;;;;;;;;;18.20;99.90;;;;;;5084602;28;19919;-76
2023/10/27 13:22:47;;;;;;;;;;;18.30;99.90;;;;;;5096640;28;19916;-75
2023/10/27 13:25:13;;;;;;;;;;;18.40;99.90;;;;;;5097537;28;20280;-75
2023/10/27 13:27:41;;;;;;;;;;;18.40;99.90;;;;;;5096207;28;20416;-76
2023/10/27 13:30:07;;;;;;;;;;;18.30;99.90;;;;;;5088394;28;19916;-72
2023/10/27 13:32:33;;;;;;;;;;;18.20;99.90;;;;;;5083410;28;19908;-73
2023/10/27 13:34:59;;;;;;;;;;;18.40;99.90;;;;;;5079134;28;20377;-76
2023/10/27 13:37:27;;;;;;;;;;;18.60;99.90;;;;;;5079851;28;19908;-75
2023/10/27 13:39:54;;;;;;;;;;;18.50;99.90;;;;;;5081709;28;19919;-74
2023/10/27 13:42:20;;;;;;;;;;;18.40;99.90;;;;;;5094875;28;19935;-73
2023/10/27 13:44:46;;;;;;;;;;;18.40;99.90;;;;;;5093483;28;19908;-73
2023/10/27 13:47:12;;;;;;;;;;;18.40;99.90;;;;;;5094935;28;19916;-72
2023/10/27 13:49:38;;;;;;;;;;;18.30;99.90;;;;;;5092956;28;20748;-72
2023/10/27 13:52:04;;;;;;;;;;;18.20;99.90;;;;;;5094759;28;19912;-73
2023/10/27 13:54:29;;;;;;;;;;;18.10;99.90;;;;;;5078791;28;19909;-74
2023/10/27 13:56:58;;;;;;;;;;;18.20;99.90;;;;;;5093301;28;20505;-74
2023/10/27 13:59:24;;;;;;;;;;;18.20;99.90;;;;;;5095204;28;20460;-73
2023/10/27 14:01:49;;;;;;;;;;;18.20;99.90;;;;;;5094757;28;19912;-73
2023/10/27 14:04:15;;;;;;;;;;;18.20;99.90;;;;;;5085038;28;19908;-71
2023/10/27 14:06:46;;;;;;;;;;;18.00;99.90;;;;;;5094475;28;20396;-75
2023/10/27 14:09:14;;;;;;;;;;;17.90;99.90;;;;;;5089279;28;20011;-72
2023/10/27 14:11:41;;;;;;;;;;;17.90;99.90;;;;;;5086937;28;19908;-71
2023/10/27 14:14:07;;;;;;;;;;;17.90;99.90;;;;;;5086812;28;20014;-74